Time;durP1;ratioP1;P1;durP2;ratioP2;P2;SDS_P1;SDS_P2;PMS_P1;PMS_P2;Temp;Humidity;BMP_temperature;BMP_pressure;BME280_temperature;BME280_humidity;BME280_pressure;Samples;Min_cycle;Max_cycle;Signal;HPM_P1;HPM_P2
2022/11/19 00:01:15;;;;;;;6.70;4.60;;;8.60;99.90;;;;;;5051878;28;20045;-63
2022/11/19 00:03:42;;;;;;;6.82;3.45;;;8.60;99.90;;;;;;5050910;28;20029;-63
2022/11/19 00:06:14;;;;;;;7.05;3.30;;;8.60;99.90;;;;;;5051378;28;20044;-63
2022/11/19 00:08:40;;;;;;;5.97;3.30;;;8.70;99.90;;;;;;5051818;28;20029;-64
2022/11/19 00:11:09;;;;;;;6.30;3.00;;;8.70;99.90;;;;;;5051427;28;20033;-63
2022/11/19 00:13:35;;;;;;;3.35;2.10;;;8.70;99.90;;;;;;5051562;28;20082;-63
2022/11/19 00:16:12;;;;;;;3.08;1.63;;;8.70;99.90;;;;;;5050132;28;20379;-63
2022/11/19 00:18:38;;;;;;;4.47;3.20;;;8.80;99.90;;;;;;5050974;28;20029;-63
2022/11/19 00:21:06;;;;;;;7.70;6.85;;;8.70;99.90;;;;;;5051336;28;20444;-63
2022/11/19 00:23:32;;;;;;;3.10;2.38;;;8.70;99.90;;;;;;5054222;28;20032;-64
2022/11/19 00:26:07;;;;;;;4.40;3.35;;;8.60;99.90;;;;;;5054825;28;20370;-64
2022/11/19 00:28:32;;;;;;;6.00;3.90;;;8.50;99.90;;;;;;5055052;28;20033;-64
2022/11/19 00:31:09;;;;;;;3.58;3.28;;;8.30;99.90;;;;;;5054982;28;20520;-64
2022/11/19 00:33:37;;;;;;;4.53;2.20;;;8.10;99.90;;;;;;5054642;28;20505;-63
2022/11/19 00:36:04;;;;;;;5.28;2.55;;;8.30;99.90;;;;;;5054842;28;20024;-63
2022/11/19 00:38:31;;;;;;;8.15;3.38;;;8.30;99.90;;;;;;5055027;28;20035;-63
2022/11/19 00:40:57;;;;;;;6.10;3.03;;;8.10;99.90;;;;;;5054940;28;20056;-63
2022/11/19 00:46:08;;;;;;;4.47;3.33;;;7.70;99.90;;;;;;5055262;28;20036;-63
2022/11/19 00:48:33;;;;;;;5.55;3.80;;;7.70;99.90;;;;;;5054364;28;20078;-64
2022/11/19 00:50:59;;;;;;;6.70;3.35;;;7.60;99.90;;;;;;5054792;28;20444;-63
2022/11/19 00:53:25;;;;;;;5.38;3.80;;;7.60;99.90;;;;;;5054615;28;20374;-64
2022/11/19 00:55:51;;;;;;;7.05;4.68;;;7.80;99.90;;;;;;5054717;28;20029;-63
2022/11/19 00:58:18;;;;;;;8.90;5.97;;;7.90;99.90;;;;;;5054979;28;20044;-63
2022/11/19 01:00:44;;;;;;;9.55;8.45;;;7.90;99.90;;;;;;5054339;28;20041;-63
2022/11/19 01:03:10;;;;;;;8.98;7.90;;;8.00;99.90;;;;;;5054172;28;20120;-63
2022/11/19 01:05:35;;;;;;;9.13;7.00;;;8.00;99.90;;;;;;5054425;28;20541;-63
2022/11/19 01:08:01;;;;;;;5.80;4.32;;;8.00;99.90;;;;;;5054836;28;20025;-63
2022/11/19 01:10:27;;;;;;;4.20;3.50;;;8.00;99.90;;;;;;5054547;28;20433;-63
2022/11/19 01:15:37;;;;;;;7.82;3.67;;;8.20;99.90;;;;;;5054366;28;20075;-63
2022/11/19 01:18:02;;;;;;;7.68;3.85;;;8.30;99.90;;;;;;5054041;28;20025;-63
2022/11/19 01:20:28;;;;;;;9.93;4.20;;;8.40;99.90;;;;;;5054133;28;20033;-64
2022/11/19 01:22:54;;;;;;;5.57;3.67;;;8.30;99.90;;;;;;5054093;28;20047;-64
2022/11/19 01:25:20;;;;;;;8.07;3.70;;;8.30;99.90;;;;;;5054070;28;20490;-64
2022/11/19 01:27:45;;;;;;;9.10;5.80;;;8.30;99.90;;;;;;5054304;28;20055;-64
2022/11/19 01:30:11;;;;;;;4.53;3.53;;;8.30;99.90;;;;;;5053633;28;20099;-63
2022/11/19 01:32:37;;;;;;;7.38;3.90;;;8.40;99.90;;;;;;5053725;28;20031;-63
2022/11/19 01:35:04;;;;;;;5.00;3.22;;;8.30;99.90;;;;;;5054235;28;20033;-64
2022/11/19 01:37:29;;;;;;;6.43;3.90;;;8.30;99.90;;;;;;5053896;28;20053;-64
2022/11/19 01:39:55;;;;;;;6.25;3.90;;;8.40;99.90;;;;;;5053558;28;20091;-63
2022/11/19 01:45:30;;;;;;;7.97;4.28;;;8.20;99.90;;;;;;5053618;28;20075;-64
2022/11/19 01:48:10;;;;;;;5.85;3.85;;;8.10;99.90;;;;;;5054093;28;20029;-64
2022/11/19 01:50:44;;;;;;;5.53;3.33;;;8.10;99.90;;;;;;5053902;28;20442;-64
2022/11/19 01:53:12;;;;;;;6.35;3.42;;;7.90;99.90;;;;;;5053488;28;20104;-63
2022/11/19 01:55:38;;;;;;;8.18;3.50;;;7.90;99.90;;;;;;5053592;28;20484;-63
2022/11/19 01:58:06;;;;;;;4.47;3.67;;;7.80;99.90;;;;;;5053300;28;20025;-63
2022/11/19 02:00:32;;;;;;;7.35;4.38;;;7.70;99.90;;;;;;5053582;28;20037;-64
2022/11/19 02:02:58;;;;;;;5.70;4.07;;;7.60;99.90;;;;;;5053246;28;20445;-64
2022/11/19 02:05:25;;;;;;;5.47;3.88;;;7.70;99.90;;;;;;5053264;28;20063;-64
2022/11/19 02:07:56;;;;;;;8.02;4.32;;;7.70;99.90;;;;;;5053216;28;20013;-64
2022/11/19 02:10:47;;;;;;;7.63;4.63;;;7.60;99.90;;;;;;5053693;28;20083;-64
2022/11/19 02:13:41;;;;;;;7.30;3.88;;;7.50;99.90;;;;;;5053015;28;20021;-63
2022/11/19 02:16:38;;;;;;;7.25;3.53;;;7.60;99.90;;;;;;5050740;28;20482;-64
2022/11/19 02:19:19;;;;;;;6.47;4.10;;;7.60;99.90;;;;;;5053456;28;20075;-64
2022/11/19 02:21:52;;;;;;;12.50;6.40;;;7.50;99.90;;;;;;5052495;28;20162;-64
2022/11/19 02:24:45;;;;;;;7.82;3.72;;;7.40;99.90;;;;;;5052974;28;20033;-64
2022/11/19 02:27:19;;;;;;;8.35;4.57;;;7.30;99.90;;;;;;5053285;28;20033;-64
2022/11/19 02:30:02;;;;;;;11.63;9.82;;;7.20;99.90;;;;;;5052004;28;20481;-63
2022/11/19 02:32:46;;;;;;;11.18;5.78;;;7.20;99.90;;;;;;5053058;28;20542;-63
2022/11/19 02:35:20;;;;;;;5.55;4.95;;;7.30;99.90;;;;;;5052749;28;20029;-63
2022/11/19 02:38:03;;;;;;;8.80;5.70;;;7.30;99.90;;;;;;5051505;28;20041;-64
2022/11/19 02:40:40;;;;;;;15.68;8.63;;;7.20;99.90;;;;;;5052426;28;20049;-63
2022/11/19 02:43:17;;;;;;;9.95;4.65;;;7.10;99.90;;;;;;5052557;28;20032;-64
2022/11/19 02:45:54;;;;;;;17.45;8.50;;;7.10;99.90;;;;;;5051849;28;20454;-64
2022/11/19 02:48:40;;;;;;;10.82;6.82;;;7.20;99.90;;;;;;5052497;28;20025;-63
2022/11/19 02:51:08;;;;;;;15.10;7.53;;;7.10;99.90;;;;;;5051894;28;20040;-64
2022/11/19 02:53:34;;;;;;;17.02;8.52;;;7.00;99.90;;;;;;5051088;28;20029;-63
2022/11/19 02:56:45;;;;;;;11.07;7.43;;;6.90;99.90;;;;;;5052645;28;20111;-63
2022/11/19 03:04:43;;;;;;;27.05;11.48;;;7.20;99.90;;;;;;5052219;28;20417;-64
2022/11/19 03:07:14;;;;;;;26.20;17.45;;;7.30;99.90;;;;;;5052239;28;20017;-64
2022/11/19 03:10:01;;;;;;;60.40;18.75;;;7.30;99.90;;;;;;5052565;28;20344;-64
2022/11/19 03:12:27;;;;;;;62.75;21.48;;;7.30;99.90;;;;;;5051669;28;20124;-64
2022/11/19 03:18:00;;;;;;;89.82;26.90;;;7.30;99.90;;;;;;5052226;28;20043;-63
2022/11/19 03:20:39;;;;;;;54.90;30.25;;;7.20;99.90;;;;;;5051009;28;20037;-63
2022/11/19 03:23:18;;;;;;;50.70;39.50;;;7.20;99.90;;;;;;5051902;28;20029;-64
2022/11/19 03:25:51;;;;;;;28.75;22.98;;;7.20;99.90;;;;;;5051631;28;20119;-64
2022/11/19 03:28:22;;;;;;;22.60;18.17;;;7.20;99.90;;;;;;5051819;28;20098;-63
2022/11/19 03:30:50;;;;;;;10.68;7.00;;;7.30;99.90;;;;;;5051638;28;20033;-64
2022/11/19 03:33:24;;;;;;;9.27;5.00;;;7.30;99.90;;;;;;5051791;28;20025;-63
2022/11/19 03:35:55;;;;;;;5.50;4.47;;;7.30;99.90;;;;;;5050502;28;20410;-64
2022/11/19 03:38:31;;;;;;;5.95;4.78;;;7.30;99.90;;;;;;5050814;28;20076;-63
2022/11/19 03:40:57;;;;;;;5.43;3.72;;;7.40;99.90;;;;;;5050954;28;20505;-64
2022/11/19 03:43:26;;;;;;;5.50;4.20;;;7.40;99.90;;;;;;5051556;28;20025;-63
2022/11/19 03:45:55;;;;;;;5.25;3.60;;;7.50;99.90;;;;;;5051728;28;20028;-63
2022/11/19 03:48:22;;;;;;;6.25;2.90;;;7.50;99.90;;;;;;5051630;28;20036;-63
2022/11/19 03:51:02;;;;;;;4.35;2.60;;;7.60;99.90;;;;;;5051451;28;20058;-63
2022/11/19 03:53:28;;;;;;;3.42;2.45;;;7.70;99.90;;;;;;5051474;28;20037;-64
2022/11/19 03:56:01;;;;;;;4.13;2.35;;;7.50;99.90;;;;;;5051587;28;20063;-64
2022/11/19 03:58:28;;;;;;;5.95;2.15;;;7.50;99.90;;;;;;5055726;28;20033;-63
2022/11/19 04:00:55;;;;;;;2.78;1.70;;;7.40;99.90;;;;;;5055490;28;20044;-64
2022/11/19 04:03:20;;;;;;;3.35;1.65;;;7.30;99.90;;;;;;5055993;28;20075;-63
2022/11/19 04:05:46;;;;;;;3.75;1.90;;;7.30;99.90;;;;;;5055604;28;20052;-64
2022/11/19 04:08:12;;;;;;;5.30;1.80;;;7.40;99.90;;;;;;5055438;28;20056;-63
2022/11/19 04:10:38;;;;;;;2.92;1.80;;;7.40;99.90;;;;;;5055070;28;20428;-63
2022/11/19 04:13:03;;;;;;;2.78;1.70;;;7.40;99.90;;;;;;5055311;28;20024;-63
2022/11/19 04:15:29;;;;;;;3.95;1.80;;;7.30;99.90;;;;;;5055693;28;20021;-64
2022/11/19 04:17:55;;;;;;;5.75;1.88;;;7.40;99.90;;;;;;5055287;28;20037;-64
2022/11/19 04:20:21;;;;;;;3.40;1.70;;;7.40;99.90;;;;;;5055112;28;20032;-63
2022/11/19 04:22:49;;;;;;;3.50;2.00;;;7.40;99.90;;;;;;5055002;28;20070;-63
2022/11/19 04:25:15;;;;;;;3.03;1.70;;;7.50;99.90;;;;;;5054671;28;20052;-63
2022/11/19 04:27:40;;;;;;;6.95;2.35;;;7.50;99.90;;;;;;5055078;28;20134;-64
2022/11/19 04:30:07;;;;;;;2.97;2.13;;;7.60;99.90;;;;;;5055483;28;20032;-64
2022/11/19 04:32:33;;;;;;;5.10;2.58;;;7.60;99.90;;;;;;5054939;28;20074;-64
2022/11/19 04:34:58;;;;;;;5.38;2.80;;;7.60;99.90;;;;;;5055021;28;20021;-64
2022/11/19 04:37:24;;;;;;;5.28;2.47;;;7.60;99.90;;;;;;5054959;28;20209;-64
2022/11/19 04:39:49;;;;;;;3.85;2.45;;;7.60;99.90;;;;;;5054290;28;20486;-64
2022/11/19 04:42:15;;;;;;;3.90;2.38;;;7.60;99.90;;;;;;5054910;28;20033;-64
2022/11/19 04:44:41;;;;;;;5.70;2.50;;;7.60;99.90;;;;;;5054761;28;20025;-64
2022/11/19 04:47:06;;;;;;;3.55;2.20;;;7.50;99.90;;;;;;5055446;28;20025;-64
2022/11/19 04:49:32;;;;;;;6.15;2.60;;;7.50;99.90;;;;;;5054845;28;20060;-64
2022/11/19 04:51:58;;;;;;;6.78;2.83;;;7.40;99.90;;;;;;5054635;28;20398;-64
2022/11/19 04:54:24;;;;;;;5.95;2.38;;;7.30;99.90;;;;;;5054908;28;20021;-64
2022/11/19 04:56:49;;;;;;;6.97;2.97;;;7.30;99.90;;;;;;5054601;28;20040;-64
2022/11/19 04:59:15;;;;;;;6.75;2.70;;;7.10;99.90;;;;;;5054602;28;20037;-63
2022/11/19 05:01:40;;;;;;;5.13;2.88;;;6.90;99.90;;;;;;5054450;28;20486;-64
2022/11/19 05:04:06;;;;;;;5.80;2.55;;;6.90;99.90;;;;;;5054755;28;20028;-64
2022/11/19 05:06:32;;;;;;;4.15;2.38;;;6.80;99.90;;;;;;5054508;28;20406;-64
2022/11/19 05:08:58;;;;;;;6.25;2.53;;;6.70;99.90;;;;;;5052086;28;20036;-64
2022/11/19 05:11:23;;;;;;;8.27;3.10;;;6.80;99.90;;;;;;5054621;28;20124;-64
2022/11/19 05:13:49;;;;;;;7.78;3.70;;;6.60;99.90;;;;;;5054337;28;20382;-64
2022/11/19 05:16:15;;;;;;;10.68;6.07;;;6.70;99.90;;;;;;5054197;28;20520;-64
2022/11/19 05:18:40;;;;;;;9.73;4.90;;;6.60;99.90;;;;;;5054141;28;20025;-64
2022/11/19 05:21:06;;;;;;;28.17;17.15;;;6.40;99.90;;;;;;5054042;28;20489;-64
2022/11/19 05:23:32;;;;;;;70.18;29.80;;;6.20;99.90;;;;;;5053823;28;20031;-64
2022/11/19 05:25:57;;;;;;;91.00;48.38;;;6.20;99.90;;;;;;5053995;28;20146;-63
2022/11/19 05:28:23;;;;;;;139.05;65.75;;;6.00;99.90;;;;;;5054510;28;20083;-63
2022/11/19 05:30:53;;;;;;;338.55;167.57;;;5.90;99.90;;;;;;5053908;28;20025;-63
2022/11/19 05:33:18;;;;;;;523.08;89.20;;;5.80;99.90;;;;;;5053837;28;20434;-63
2022/11/19 05:35:44;;;;;;;381.20;90.00;;;5.60;99.90;;;;;;5053687;28;20029;-63
2022/11/19 05:38:10;;;;;;;103.25;64.20;;;5.50;99.90;;;;;;5053862;28;20096;-63
2022/11/19 05:40:35;;;;;;;83.47;54.45;;;5.70;99.90;;;;;;5053396;28;20045;-64
2022/11/19 05:43:05;;;;;;;50.00;21.67;;;5.90;99.90;;;;;;5053737;28;20032;-64
2022/11/19 05:45:31;;;;;;;28.42;20.83;;;5.70;99.90;;;;;;5053760;28;20033;-64
2022/11/19 05:47:57;;;;;;;50.20;37.28;;;5.50;99.90;;;;;;5053727;28;20093;-63
2022/11/19 05:50:23;;;;;;;95.45;55.25;;;5.50;99.90;;;;;;5053507;28;20409;-64
2022/11/19 05:52:49;;;;;;;113.55;41.78;;;5.40;99.90;;;;;;5053079;28;20021;-63
2022/11/19 05:55:15;;;;;;;52.70;34.67;;;5.10;99.90;;;;;;5052321;28;20037;-64
2022/11/19 05:57:42;;;;;;;34.08;21.92;;;5.30;99.90;;;;;;5053764;28;20029;-63
2022/11/19 06:00:08;;;;;;;48.83;41.55;;;5.70;99.90;;;;;;5053339;28;20032;-64
2022/11/19 06:02:34;;;;;;;53.97;46.50;;;5.80;99.90;;;;;;5053194;28;20035;-63
2022/11/19 06:04:59;;;;;;;29.70;25.83;;;5.50;99.90;;;;;;5053303;28;20028;-63
2022/11/19 06:07:25;;;;;;;19.77;16.95;;;5.50;99.90;;;;;;5052981;28;20139;-64
2022/11/19 06:09:50;;;;;;;27.70;24.40;;;5.50;99.90;;;;;;5053896;28;20029;-63
2022/11/19 06:12:16;;;;;;;22.23;17.67;;;5.30;99.90;;;;;;5053082;28;20028;-63
2022/11/19 06:14:42;;;;;;;29.05;23.42;;;5.20;99.90;;;;;;5053039;28;20029;-63
2022/11/19 06:17:08;;;;;;;98.15;70.53;;;5.20;99.90;;;;;;5053181;28;20063;-63
2022/11/19 06:19:33;;;;;;;79.43;51.38;;;5.10;99.90;;;;;;5052374;28;20053;-64
2022/11/19 06:21:59;;;;;;;634.38;124.53;;;4.80;99.90;;;;;;5052394;28;20047;-63
2022/11/19 06:24:25;;;;;;;98.20;63.05;;;4.60;99.90;;;;;;5052837;28;20355;-64
2022/11/19 06:26:51;;;;;;;43.45;36.42;;;4.50;99.90;;;;;;5052823;28;20478;-63
2022/11/19 06:29:17;;;;;;;28.75;24.23;;;4.50;99.90;;;;;;5052835;28;20377;-64
2022/11/19 06:31:43;;;;;;;28.10;21.67;;;4.50;99.90;;;;;;5052549;28;20028;-63
2022/11/19 06:34:09;;;;;;;28.17;20.88;;;4.70;99.90;;;;;;5052648;28;20490;-63
2022/11/19 06:36:35;;;;;;;21.83;16.40;;;4.50;99.90;;;;;;5052381;28;20032;-64
2022/11/19 06:39:01;;;;;;;15.15;8.85;;;4.50;99.90;;;;;;5052872;28;20036;-63
2022/11/19 06:41:26;;;;;;;18.52;10.85;;;4.60;99.90;;;;;;5052131;28;20041;-62
2022/11/19 06:43:52;;;;;;;20.15;10.77;;;4.70;99.90;;;;;;5052341;28;20024;-63
2022/11/19 06:46:17;;;;;;;22.13;14.60;;;4.70;99.90;;;;;;5052960;28;20482;-63
2022/11/19 06:48:43;;;;;;;25.88;12.07;;;4.70;99.90;;;;;;5052433;28;20489;-62
2022/11/19 06:51:09;;;;;;;25.15;11.40;;;4.80;99.90;;;;;;5052101;28;20029;-62
2022/11/19 06:53:35;;;;;;;16.13;8.63;;;4.70;99.90;;;;;;5052380;28;20100;-62
2022/11/19 06:56:03;;;;;;;11.60;7.80;;;4.70;99.90;;;;;;5052549;28;20033;-63
2022/11/19 06:58:29;;;;;;;7.45;6.65;;;4.60;99.90;;;;;;5052072;28;20382;-61
2022/11/19 07:00:55;;;;;;;27.27;8.50;;;4.50;99.90;;;;;;5052172;28;20051;-64
2022/11/19 07:03:21;;;;;;;10.20;7.35;;;4.40;99.90;;;;;;5051280;28;20029;-62
2022/11/19 07:05:48;;;;;;;9.65;7.32;;;4.20;99.90;;;;;;5050616;28;20441;-62
2022/11/19 07:08:15;;;;;;;7.03;5.95;;;4.30;99.90;;;;;;5052236;28;20071;-63
2022/11/19 07:10:41;;;;;;;7.88;6.00;;;4.10;99.90;;;;;;5052188;28;20021;-63
2022/11/19 07:13:06;;;;;;;27.33;18.90;;;4.30;99.90;;;;;;5051661;28;20021;-63
2022/11/19 07:15:32;;;;;;;80.72;50.05;;;4.50;99.90;;;;;;5051902;28;20648;-64
2022/11/19 07:17:58;;;;;;;52.80;34.53;;;4.60;99.90;;;;;;5051861;28;20025;-64
2022/11/19 07:20:23;;;;;;;52.95;39.10;;;4.80;99.90;;;;;;5051650;28;20044;-64
2022/11/19 07:22:49;;;;;;;36.83;25.23;;;4.90;99.90;;;;;;5050692;28;20389;-64
2022/11/19 07:25:15;;;;;;;21.35;15.18;;;4.90;99.90;;;;;;5051803;28;20072;-65
2022/11/19 07:27:42;;;;;;;18.08;13.65;;;5.00;99.90;;;;;;5051899;28;20025;-63
2022/11/19 07:30:09;;;;;;;13.30;9.48;;;5.40;99.90;;;;;;5051351;28;20016;-63
2022/11/19 07:32:34;;;;;;;48.08;42.88;;;6.60;99.90;;;;;;5050887;28;20103;-64
2022/11/19 07:35:03;;;;;;;18.85;17.05;;;7.10;99.90;;;;;;5051365;28;20272;-64
2022/11/19 07:37:29;;;;;;;9.45;8.00;;;7.90;99.90;;;;;;5051893;28;20074;-64
2022/11/19 07:39:55;;;;;;;23.98;8.43;;;8.20;99.90;;;;;;5051333;28;20139;-64
2022/11/19 07:45:09;;;;;;;11.25;5.85;;;7.70;99.90;;;;;;5051868;28;20500;-63
2022/11/19 07:47:35;;;;;;;26.77;20.10;;;7.70;99.90;;;;;;5051245;28;20068;-64
2022/11/19 07:50:01;;;;;;;22.73;14.23;;;9.50;99.90;;;;;;5051727;28;20033;-63
2022/11/19 07:52:27;;;;;;;20.60;10.05;;;8.90;99.90;;;;;;5051622;28;20024;-64
2022/11/19 07:54:52;;;;;;;18.15;12.20;;;9.20;99.90;;;;;;5052106;28;20029;-64
2022/11/19 07:57:18;;;;;;;11.70;8.73;;;11.30;99.90;;;;;;5051664;28;20028;-64
2022/11/19 07:59:44;;;;;;;13.07;10.40;;;11.30;99.90;;;;;;5051381;28;20048;-64
2022/11/19 08:02:11;;;;;;;13.68;12.30;;;9.30;99.90;;;;;;5051558;28;20029;-64
2022/11/19 08:04:37;;;;;;;20.25;15.80;;;8.60;99.90;;;;;;5051332;28;20032;-63
2022/11/19 08:07:02;;;;;;;19.27;17.38;;;8.10;99.90;;;;;;5051402;28;20017;-63
2022/11/19 08:09:28;;;;;;;24.10;21.73;;;7.90;99.90;;;;;;5051536;28;20457;-63
2022/11/19 08:11:54;;;;;;;14.50;13.13;;;7.70;99.90;;;;;;5051297;28;20027;-63
2022/11/19 08:14:19;;;;;;;14.13;12.55;;;7.80;99.90;;;;;;5051853;28;20108;-63
2022/11/19 08:19:29;;;;;;;18.42;14.70;;;7.60;99.90;;;;;;5051340;28;20051;-63
2022/11/19 08:21:55;;;;;;;22.75;14.40;;;7.60;99.90;;;;;;5051147;28;20037;-63
2022/11/19 08:24:21;;;;;;;17.52;12.52;;;7.70;99.90;;;;;;5051220;28;20485;-63
2022/11/19 08:26:47;;;;;;;21.60;16.13;;;7.80;99.90;;;;;;5051298;28;20021;-63
2022/11/19 08:29:15;;;;;;;25.33;10.93;;;8.00;99.90;;;;;;5051167;28;20024;-63
2022/11/19 08:31:43;;;;;;;23.55;12.88;;;8.10;99.90;;;;;;5051179;28;20033;-63
2022/11/19 08:34:08;;;;;;;13.10;8.38;;;8.00;99.90;;;;;;5051251;28;20040;-64
2022/11/19 08:36:34;;;;;;;17.17;10.57;;;8.00;99.90;;;;;;5049858;28;20486;-63
2022/11/19 08:39:01;;;;;;;18.92;14.65;;;8.30;99.90;;;;;;5050978;28;20032;-63
2022/11/19 08:44:12;;;;;;;15.50;13.15;;;8.10;99.90;;;;;;5053640;28;20128;-63
2022/11/19 08:46:38;;;;;;;16.15;14.45;;;8.40;99.90;;;;;;5054440;28;20029;-63
2022/11/19 08:49:04;;;;;;;9.50;8.32;;;8.40;99.90;;;;;;5055312;28;20339;-63
2022/11/19 08:51:30;;;;;;;8.23;7.32;;;8.40;99.90;;;;;;5054792;28;20025;-64
2022/11/19 08:53:56;;;;;;;10.48;8.65;;;8.30;99.90;;;;;;5054736;28;20124;-63
2022/11/19 08:56:22;;;;;;;10.50;9.50;;;8.00;99.90;;;;;;5054716;28;20428;-63
2022/11/19 08:58:48;;;;;;;8.38;7.15;;;8.00;99.90;;;;;;5054479;28;20017;-63
2022/11/19 09:01:18;;;;;;;8.50;7.60;;;8.10;99.90;;;;;;5053843;28;20064;-64
2022/11/19 09:03:44;;;;;;;10.35;8.93;;;7.90;99.90;;;;;;5054726;28;20021;-63
2022/11/19 09:06:10;;;;;;;10.25;9.20;;;7.90;99.90;;;;;;5054485;28;20436;-63
2022/11/19 09:08:36;;;;;;;10.30;9.27;;;8.00;99.90;;;;;;5054472;28;20028;-63
2022/11/19 09:11:07;;;;;;;8.23;7.28;;;11.50;99.90;;;;;;5054386;28;20033;-63
2022/11/19 09:13:33;;;;;;;8.25;5.80;;;14.10;99.90;;;;;;5054248;28;20474;-63
2022/11/19 09:15:59;;;;;;;8.75;7.22;;;16.30;99.90;;;;;;5053957;28;20071;-63
2022/11/19 09:18:24;;;;;;;11.90;7.57;;;16.60;99.90;;;;;;5054386;28;20362;-64
2022/11/19 09:20:54;;;;;;;11.32;7.50;;;17.00;99.90;;;;;;5054460;28;20087;-64
2022/11/19 09:23:21;;;;;;;10.63;7.88;;;18.00;99.90;;;;;;5054153;28;20028;-63
2022/11/19 09:25:57;;;;;;;8.27;4.55;;;18.90;99.90;;;;;;5054059;28;20103;-64
2022/11/19 09:28:23;;;;;;;9.05;4.90;;;19.50;99.90;;;;;;5053948;28;20512;-64
2022/11/19 09:30:56;;;;;;;7.95;4.07;;;20.30;99.90;;;;;;5054030;28;20067;-64
2022/11/19 09:33:23;;;;;;;9.35;4.32;;;20.80;99.90;;;;;;5054309;28;20044;-64
2022/11/19 09:35:48;;;;;;;6.80;3.67;;;19.80;99.90;;;;;;5053456;28;20067;-64
2022/11/19 09:38:14;;;;;;;6.18;3.10;;;20.70;99.90;;;;;;5053910;28;20049;-64
2022/11/19 09:40:48;;;;;;;5.28;2.58;;;21.00;99.90;;;;;;5053793;28;20569;-63
2022/11/19 09:43:21;;;;;;;7.07;3.15;;;21.20;99.90;;;;;;5053383;28;20490;-63
2022/11/19 09:46:22;;;;;;;6.45;3.10;;;20.90;99.90;;;;;;5053865;28;20048;-63
2022/11/19 09:48:52;;;;;;;7.28;2.80;;;20.20;99.90;;;;;;5052295;28;20555;-64
2022/11/19 09:51:25;;;;;;;7.78;2.80;;;19.70;99.90;;;;;;5053950;28;20070;-63
2022/11/19 09:54:05;;;;;;;6.35;2.28;;;19.80;99.90;;;;;;5053462;28;20056;-64
2022/11/19 09:56:43;;;;;;;7.35;1.90;;;20.00;99.90;;;;;;5053562;28;20112;-64
2022/11/19 09:59:32;;;;;;;7.40;2.20;;;18.10;99.90;;;;;;5053181;28;20033;-64
2022/11/19 10:01:57;;;;;;;9.48;4.15;;;17.00;99.90;;;;;;5053803;28;20037;-64
2022/11/19 10:04:26;;;;;;;6.95;2.53;;;17.30;99.90;;;;;;5053437;28;20482;-63
2022/11/19 10:07:05;;;;;;;3.75;1.80;;;19.80;99.90;;;;;;5053426;28;20029;-64
2022/11/19 10:10:05;;;;;;;5.03;1.85;;;21.20;99.90;;;;;;5053305;28;20021;-64
2022/11/19 10:12:53;;;;;;;5.80;2.03;;;20.00;99.90;;;;;;5052472;28;20021;-63
2022/11/19 10:15:35;;;;;;;5.75;2.20;;;17.70;99.90;;;;;;5053295;28;20021;-63
2022/11/19 10:18:06;;;;;;;5.22;2.00;;;17.00;99.90;;;;;;5053312;28;20422;-64
2022/11/19 10:20:44;;;;;;;4.90;1.75;;;18.10;99.90;;;;;;5053020;28;20466;-64
2022/11/19 10:23:18;;;;;;;8.25;2.20;;;19.70;99.90;;;;;;5053590;28;20474;-63
2022/11/19 10:25:49;;;;;;;6.57;2.00;;;21.20;99.90;;;;;;5052842;28;20040;-64
2022/11/19 10:28:22;;;;;;;5.35;1.98;;;22.10;99.90;;;;;;5052709;28;20504;-64
2022/11/19 10:30:50;;;;;;;6.37;1.90;;;22.70;99.90;;;;;;5052841;28;20017;-64
2022/11/19 10:33:50;;;;;;;6.28;2.25;;;22.50;99.90;;;;;;5052970;28;20271;-64
2022/11/19 10:36:30;;;;;;;6.38;2.08;;;22.00;99.90;;;;;;5010858;28;20040;-64
2022/11/19 10:39:06;;;;;;;6.43;3.05;;;22.60;99.90;;;;;;5010710;28;20430;-64
2022/11/19 10:41:34;;;;;;;5.75;2.42;;;22.40;99.90;;;;;;5010242;28;20042;-64
2022/11/19 10:44:36;;;;;;;6.47;2.20;;;22.60;99.90;;;;;;5011020;28;20050;-64
2022/11/19 10:47:15;;;;;;;4.55;2.67;;;23.00;99.90;;;;;;5010815;28;20080;-64
2022/11/19 10:49:42;;;;;;;6.35;2.28;;;23.10;99.90;;;;;;5011312;28;20026;-63
2022/11/19 10:52:41;;;;;;;5.43;1.55;;;23.10;99.90;;;;;;5010942;28;20084;-64
2022/11/19 10:55:24;;;;;;;7.22;1.80;;;22.00;99.90;;;;;;5003482;28;20535;-63
2022/11/19 10:58:05;;;;;;;5.10;1.73;;;21.40;99.90;;;;;;5010338;28;20091;-63
2022/11/19 11:00:32;;;;;;;3.15;1.60;;;22.90;99.90;;;;;;5010411;28;20092;-64
2022/11/19 11:03:03;;;;;;;5.85;1.73;;;23.50;99.90;;;;;;5010546;28;20033;-63
2022/11/19 11:05:30;;;;;;;4.45;1.67;;;23.40;99.90;;;;;;5009881;28;20042;-64
2022/11/19 11:07:58;;;;;;;5.97;1.80;;;22.70;99.90;;;;;;5010325;28;20030;-63
2022/11/19 11:10:41;;;;;;;5.60;1.90;;;23.10;99.90;;;;;;5010126;28;20481;-64
2022/11/19 11:16:19;;;;;;;6.28;2.05;;;20.20;99.90;;;;;;5032489;28;20044;-64
2022/11/19 11:18:47;;;;;;;4.80;1.60;;;20.40;99.90;;;;;;5032509;28;20033;-63
2022/11/19 11:21:29;;;;;;;5.30;1.90;;;21.60;99.90;;;;;;5032084;28;20164;-63
2022/11/19 11:23:55;;;;;;;5.22;1.65;;;20.40;99.90;;;;;;5033803;28;20022;-63
2022/11/19 11:26:27;;;;;;;5.93;1.60;;;19.50;99.90;;;;;;5052385;28;20096;-63
2022/11/19 11:29:06;;;;;;;4.68;1.80;;;21.50;99.90;;;;;;5052076;28;20056;-63
2022/11/19 11:31:44;;;;;;;3.45;1.50;;;21.50;99.90;;;;;;5051863;28;20020;-63
2022/11/19 11:34:24;;;;;;;5.63;1.50;;;20.50;99.90;;;;;;5051870;28;20029;-63
2022/11/19 11:36:51;;;;;;;5.53;1.63;;;20.10;99.90;;;;;;5051775;28;20032;-63
2022/11/19 11:39:32;;;;;;;3.83;1.50;;;20.10;99.90;;;;;;5051088;28;20036;-63
2022/11/19 11:42:00;;;;;;;5.93;1.95;;;20.10;99.90;;;;;;5052697;28;20036;-63
2022/11/19 11:44:28;;;;;;;3.85;1.70;;;18.90;99.90;;;;;;5052499;28;20041;-63
2022/11/19 11:46:57;;;;;;;4.05;1.40;;;20.10;99.90;;;;;;5053053;28;20037;-63
2022/11/19 11:49:29;;;;;;;5.38;1.58;;;18.40;99.90;;;;;;5052969;28;20108;-63
2022/11/19 11:52:15;;;;;;;6.78;1.67;;;17.80;99.90;;;;;;5052109;28;20094;-63
2022/11/19 11:55:06;;;;;;;6.68;1.85;;;17.00;99.90;;;;;;5051323;28;20052;-63
2022/11/19 11:57:34;;;;;;;5.38;1.60;;;19.00;99.90;;;;;;5048766;28;20048;-63
2022/11/19 12:00:03;;;;;;;3.72;1.45;;;20.40;99.90;;;;;;5052431;28;20335;-63
2022/11/19 12:02:31;;;;;;;4.90;1.77;;;19.30;99.90;;;;;;5051580;28;20540;-63
2022/11/19 12:05:03;;;;;;;7.72;1.70;;;18.90;99.90;;;;;;5051501;28;20051;-63
2022/11/19 12:07:36;;;;;;;3.55;1.30;;;19.70;99.90;;;;;;5051356;28;20021;-63
2022/11/19 12:10:14;;;;;;;5.60;1.35;;;19.20;99.90;;;;;;5051338;28;20390;-63
2022/11/19 12:13:00;;;;;;;4.80;1.73;;;18.30;99.90;;;;;;5051498;28;20029;-63
2022/11/19 12:16:02;;;;;;;4.03;1.40;;;17.30;99.90;;;;;;5052194;28;20075;-63
2022/11/19 12:18:46;;;;;;;5.70;1.67;;;17.60;99.90;;;;;;5032471;28;20037;-63
2022/11/19 12:21:45;;;;;;;4.45;1.58;;;17.80;99.90;;;;;;5032972;28;20099;-63
2022/11/19 12:24:39;;;;;;;3.85;1.38;;;17.10;99.90;;;;;;5033010;28;20116;-62
2022/11/19 12:27:20;;;;;;;3.63;1.53;;;17.10;99.90;;;;;;5033107;28;20495;-63
2022/11/19 12:30:04;;;;;;;6.35;2.33;;;17.80;99.90;;;;;;5033065;28;20041;-63
2022/11/19 12:32:51;;;;;;;4.10;1.50;;;17.40;99.90;;;;;;5033170;28;20025;-63
2022/11/19 12:35:26;;;;;;;4.28;1.40;;;17.10;99.90;;;;;;5032734;28;20034;-63
2022/11/19 12:37:52;;;;;;;5.95;1.70;;;17.10;99.90;;;;;;5032597;28;20033;-63
2022/11/19 12:40:32;;;;;;;5.57;1.42;;;17.60;99.90;;;;;;5032588;28;20506;-63
2022/11/19 12:43:13;;;;;;;4.25;1.58;;;17.40;99.90;;;;;;5032734;28;20041;-63
2022/11/19 12:45:49;;;;;;;4.75;1.83;;;17.30;99.90;;;;;;5032930;28;20025;-63
2022/11/19 12:48:26;;;;;;;3.60;1.50;;;17.40;99.90;;;;;;5032792;28;20041;-63
2022/11/19 12:51:15;;;;;;;4.35;1.67;;;16.80;99.90;;;;;;5032451;28;20108;-63
2022/11/19 12:53:43;;;;;;;5.35;1.50;;;16.50;99.90;;;;;;5032224;28;20056;-63
2022/11/19 12:56:23;;;;;;;3.28;1.35;;;17.10;99.90;;;;;;5034483;28;20037;-63
2022/11/19 12:59:26;;;;;;;4.88;1.42;;;17.30;99.90;;;;;;5034671;28;20027;-63
2022/11/19 13:01:54;;;;;;;4.20;1.30;;;17.50;99.90;;;;;;5034610;28;20068;-63
2022/11/19 13:04:36;;;;;;;5.95;1.73;;;16.80;99.90;;;;;;5034745;28;20509;-63
2022/11/19 13:07:21;;;;;;;2.70;1.27;;;16.30;99.90;;;;;;5034171;28;20029;-63
2022/11/19 13:09:51;;;;;;;5.35;1.70;;;16.80;99.90;;;;;;5034753;28;20021;-63
2022/11/19 13:12:21;;;;;;;2.75;1.40;;;16.20;99.90;;;;;;5034381;28;20029;-63
2022/11/19 13:14:53;;;;;;;7.47;1.70;;;16.00;99.90;;;;;;5034839;28;20033;-63
2022/11/19 13:17:36;;;;;;;4.63;1.58;;;15.80;99.90;;;;;;5034270;28;20033;-63
2022/11/19 13:20:26;;;;;;;4.05;1.77;;;15.40;99.90;;;;;;5034203;28;20028;-63
2022/11/19 13:22:56;;;;;;;4.30;1.33;;;15.20;99.90;;;;;;5029931;28;20433;-63
2022/11/19 13:25:27;;;;;;;4.47;1.50;;;15.20;99.90;;;;;;5047968;28;20021;-62
2022/11/19 13:27:56;;;;;;;4.18;1.50;;;15.40;99.90;;;;;;5055622;28;20089;-63
2022/11/19 13:30:25;;;;;;;4.90;1.70;;;15.30;99.90;;;;;;5052980;28;20209;-63
2022/11/19 13:33:00;;;;;;;4.00;1.52;;;15.10;99.90;;;;;;5054925;28;20017;-63
2022/11/19 13:35:41;;;;;;;6.72;2.08;;;14.60;99.90;;;;;;5054103;28;20463;-63